WMT3Q LGAV-LRCV
Flight info
| Callsign | WMT3Q |
|---|---|
| Flight time | 1h 27m |
| Altitude | 36000 |
| Route | KRO UT162 KOROS DCT ATFIR/N0449F370 DCT NAVOD/N0334F100 T226 PANZU |
| Aircraft | A320/M-SDE3FGHIRWY/LB1 |
Departure
| Time | 2026-04-24 12:41 |
|---|---|
| Airport | Athens Eleftherios Venizelos International Airport (LGAV) |
Arrival
| Time | 2026-04-24 14:08 |
|---|---|
| Airport | Craiova International Airport (LRCV) |
| Time | Latitude | Longitude | Altitude | Speed | Heading |
|---|---|---|---|---|---|
| 2026-04-24 12:07 | 37.93145 | 23.94369 | 284 ft | 0 kts | 211° |
| 2026-04-24 12:29 | 37.93149 | 23.94373 | 284 ft | 2 kts | 211° |
| 2026-04-24 12:30 | 37.93166 | 23.94385 | 284 ft | 3 kts | 206° |
| 2026-04-24 12:30 | 37.93185 | 23.94396 | 286 ft | 3 kts | 201° |
| 2026-04-24 12:30 | 37.93196 | 23.94401 | 288 ft | 2 kts | 200° |
| 2026-04-24 12:30 | 37.93202 | 23.94403 | 290 ft | 0 kts | 200° |
| 2026-04-24 12:31 | 37.93202 | 23.94404 | 290 ft | 0 kts | 200° |
| 2026-04-24 12:34 | 37.93200 | 23.94403 | 290 ft | 1 kts | 194° |
| 2026-04-24 12:34 | 37.93186 | 23.94435 | 286 ft | 8 kts | 109° |
| 2026-04-24 12:35 | 37.93160 | 23.94498 | 285 ft | 5 kts | 129° |
| 2026-04-24 12:35 | 37.93133 | 23.94545 | 285 ft | 8 kts | 127° |
| 2026-04-24 12:35 | 37.93092 | 23.94613 | 285 ft | 11 kts | 127° |
| 2026-04-24 12:35 | 37.93030 | 23.94679 | 284 ft | 13 kts | 182° |
| 2026-04-24 12:36 | 37.92947 | 23.94610 | 287 ft | 16 kts | 217° |
| 2026-04-24 12:36 | 37.92853 | 23.94520 | 282 ft | 18 kts | 216° |
| 2026-04-24 12:36 | 37.92745 | 23.94419 | 281 ft | 21 kts | 216° |
| 2026-04-24 12:36 | 37.92624 | 23.94302 | 280 ft | 23 kts | 217° |
| 2026-04-24 12:37 | 37.92493 | 23.94179 | 278 ft | 19 kts | 216° |
| 2026-04-24 12:37 | 37.92420 | 23.94178 | 277 ft | 6 kts | 131° |
| 2026-04-24 12:37 | 37.92413 | 23.94225 | 277 ft | 3 kts | 87° |
| 2026-04-24 12:39 | 37.92414 | 23.94293 | 277 ft | 9 kts | 89° |
| 2026-04-24 12:39 | 37.92417 | 23.94383 | 278 ft | 10 kts | 73° |
| 2026-04-24 12:39 | 37.92454 | 23.94426 | 279 ft | 3 kts | 34° |
| 2026-04-24 12:40 | 37.92468 | 23.94439 | 279 ft | 2 kts | 36° |
| 2026-04-24 12:40 | 37.92490 | 23.94460 | 280 ft | 10 kts | 38° |
| 2026-04-24 12:40 | 37.92734 | 23.94691 | 281 ft | 77 kts | 36° |
| 2026-04-24 12:40 | 37.93312 | 23.95240 | 292 ft | 128 kts | 37° |
| 2026-04-24 12:41 | 37.94144 | 23.96024 | 413 ft | 157 kts | 39° |
| 2026-04-24 12:41 | 37.94966 | 23.96800 | 1279 ft | 146 kts | 39° |
| 2026-04-24 12:41 | 37.95783 | 23.97597 | 1907 ft | 151 kts | 38° |
| 2026-04-24 12:41 | 37.96618 | 23.98401 | 2614 ft | 151 kts | 36° |
| 2026-04-24 12:42 | 37.97516 | 23.99259 | 3107 ft | 172 kts | 37° |
| 2026-04-24 12:42 | 37.98523 | 24.00230 | 3561 ft | 192 kts | 37° |
| 2026-04-24 12:42 | 37.99664 | 24.01320 | 3908 ft | 220 kts | 36° |
| 2026-04-24 12:42 | 38.00940 | 24.02531 | 4573 ft | 233 kts | 35° |
| 2026-04-24 12:43 | 38.02246 | 24.03787 | 5420 ft | 237 kts | 36° |
| 2026-04-24 12:43 | 38.03573 | 24.05070 | 6275 ft | 243 kts | 36° |
| 2026-04-24 12:43 | 38.04928 | 24.06378 | 7086 ft | 247 kts | 36° |
| 2026-04-24 12:43 | 38.06300 | 24.07703 | 7930 ft | 250 kts | 36° |
| 2026-04-24 12:44 | 38.07674 | 24.09081 | 8756 ft | 254 kts | 44° |
| 2026-04-24 12:44 | 38.08691 | 24.10928 | 9547 ft | 260 kts | 67° |
| 2026-04-24 12:44 | 38.09082 | 24.13204 | 10140 ft | 274 kts | 89° |
| 2026-04-24 12:44 | 38.08704 | 24.15628 | 10604 ft | 291 kts | 107° |
| 2026-04-24 12:45 | 38.08018 | 24.18158 | 10822 ft | 314 kts | 108° |
| 2026-04-24 12:45 | 38.07279 | 24.20832 | 11047 ft | 335 kts | 108° |
| 2026-04-24 12:45 | 38.06497 | 24.23657 | 11591 ft | 342 kts | 108° |
| 2026-04-24 12:45 | 38.05707 | 24.26525 | 12238 ft | 347 kts | 108° |
| 2026-04-24 12:46 | 38.04912 | 24.29434 | 12917 ft | 350 kts | 108° |
| 2026-04-24 12:46 | 38.04110 | 24.32368 | 13593 ft | 354 kts | 108° |
| 2026-04-24 12:46 | 38.03296 | 24.35342 | 14216 ft | 358 kts | 109° |
| 2026-04-24 12:46 | 38.02470 | 24.38343 | 14802 ft | 362 kts | 109° |
| 2026-04-24 12:47 | 38.01712 | 24.41402 | 15334 ft | 366 kts | 100° |
| 2026-04-24 12:47 | 38.01746 | 24.44637 | 15835 ft | 371 kts | 77° |
| 2026-04-24 12:47 | 38.02701 | 24.47689 | 16348 ft | 376 kts | 58° |
| 2026-04-24 12:47 | 38.04362 | 24.50251 | 16847 ft | 381 kts | 41° |
| 2026-04-24 12:48 | 38.06588 | 24.52077 | 17395 ft | 383 kts | 22° |
| 2026-04-24 12:48 | 38.09127 | 24.53159 | 17970 ft | 386 kts | 16° |
| 2026-04-24 12:48 | 38.11706 | 24.54143 | 18547 ft | 389 kts | 16° |
| 2026-04-24 12:48 | 38.14311 | 24.55115 | 19102 ft | 391 kts | 16° |
| 2026-04-24 12:49 | 38.16930 | 24.56083 | 19668 ft | 393 kts | 17° |
| 2026-04-24 12:49 | 38.19562 | 24.57057 | 20242 ft | 394 kts | 17° |
| 2026-04-24 12:49 | 38.22204 | 24.58044 | 20817 ft | 395 kts | 18° |
| 2026-04-24 12:49 | 38.24841 | 24.59038 | 21358 ft | 396 kts | 18° |
| 2026-04-24 12:50 | 38.27492 | 24.60042 | 21862 ft | 398 kts | 18° |
| 2026-04-24 12:50 | 38.30162 | 24.61052 | 22350 ft | 401 kts | 18° |
| 2026-04-24 12:50 | 38.32805 | 24.62055 | 22820 ft | 403 kts | 18° |
| 2026-04-24 12:50 | 38.35505 | 24.63079 | 23307 ft | 405 kts | 18° |
| 2026-04-24 12:51 | 38.38213 | 24.64107 | 23766 ft | 407 kts | 18° |
| 2026-04-24 12:51 | 38.40946 | 24.65144 | 24177 ft | 409 kts | 18° |
| 2026-04-24 12:51 | 38.43678 | 24.66177 | 24591 ft | 411 kts | 18° |
| 2026-04-24 12:51 | 38.46425 | 24.67217 | 25007 ft | 412 kts | 18° |
| 2026-04-24 12:52 | 38.49176 | 24.68262 | 25397 ft | 414 kts | 18° |
| 2026-04-24 12:52 | 38.51941 | 24.69317 | 25763 ft | 416 kts | 18° |
| 2026-04-24 12:52 | 38.54724 | 24.70380 | 26131 ft | 419 kts | 18° |
| 2026-04-24 12:52 | 38.57522 | 24.71446 | 26498 ft | 421 kts | 18° |
| 2026-04-24 12:53 | 38.60335 | 24.72517 | 26875 ft | 423 kts | 18° |
| 2026-04-24 12:53 | 38.63167 | 24.73598 | 27256 ft | 425 kts | 18° |
| 2026-04-24 12:53 | 38.66005 | 24.74683 | 27652 ft | 427 kts | 18° |
| 2026-04-24 12:53 | 38.68858 | 24.75772 | 28033 ft | 429 kts | 18° |
| 2026-04-24 12:54 | 38.71724 | 24.76866 | 28402 ft | 431 kts | 18° |
| 2026-04-24 12:54 | 38.74610 | 24.77972 | 28770 ft | 433 kts | 18° |
| 2026-04-24 12:54 | 38.77503 | 24.79083 | 29113 ft | 435 kts | 18° |
| 2026-04-24 12:54 | 38.80409 | 24.80201 | 29521 ft | 436 kts | 18° |
| 2026-04-24 12:55 | 38.83310 | 24.81317 | 30051 ft | 434 kts | 18° |
| 2026-04-24 12:55 | 38.86199 | 24.82427 | 30501 ft | 433 kts | 18° |
| 2026-04-24 12:55 | 38.89043 | 24.83518 | 30926 ft | 432 kts | 18° |
| 2026-04-24 12:55 | 38.91919 | 24.84621 | 31340 ft | 431 kts | 18° |
| 2026-04-24 12:56 | 38.94796 | 24.85725 | 31749 ft | 431 kts | 17° |
| 2026-04-24 12:56 | 38.97669 | 24.86830 | 32171 ft | 431 kts | 17° |
| 2026-04-24 12:56 | 39.00534 | 24.87933 | 32594 ft | 430 kts | 17° |
| 2026-04-24 12:56 | 39.03411 | 24.89042 | 33006 ft | 430 kts | 17° |
| 2026-04-24 12:57 | 39.06303 | 24.89991 | 33424 ft | 430 kts | 10° |
| 2026-04-24 12:57 | 39.09276 | 24.90332 | 33845 ft | 430 kts | 0° |
| 2026-04-24 12:57 | 39.12258 | 24.90032 | 34237 ft | 430 kts | 351° |
| 2026-04-24 12:57 | 39.15161 | 24.89097 | 34574 ft | 431 kts | 341° |
| 2026-04-24 12:58 | 39.17979 | 24.87758 | 34881 ft | 432 kts | 340° |
| 2026-04-24 12:58 | 39.20792 | 24.86405 | 35184 ft | 432 kts | 340° |
| 2026-04-24 12:58 | 39.23607 | 24.85052 | 35482 ft | 432 kts | 340° |
| 2026-04-24 12:58 | 39.26424 | 24.83701 | 35791 ft | 432 kts | 340° |
| 2026-04-24 12:59 | 39.29237 | 24.82352 | 36092 ft | 432 kts | 340° |
| 2026-04-24 12:59 | 39.32058 | 24.80996 | 36386 ft | 432 kts | 340° |
| 2026-04-24 12:59 | 39.34867 | 24.79646 | 36678 ft | 432 kts | 340° |
| 2026-04-24 12:59 | 39.37686 | 24.78289 | 36936 ft | 432 kts | 340° |
| 2026-04-24 13:00 | 39.40507 | 24.76928 | 37033 ft | 435 kts | 340° |
| 2026-04-24 13:00 | 39.46184 | 24.74184 | 37028 ft | 439 kts | 340° |
| 2026-04-24 13:01 | 39.51908 | 24.71405 | 37025 ft | 440 kts | 340° |
| 2026-04-24 13:01 | 39.57639 | 24.68627 | 37029 ft | 439 kts | 340° |
| 2026-04-24 13:02 | 39.63369 | 24.65851 | 37025 ft | 439 kts | 340° |
| 2026-04-24 13:02 | 39.69095 | 24.63066 | 37028 ft | 439 kts | 340° |
| 2026-04-24 13:03 | 39.74820 | 24.60274 | 37029 ft | 439 kts | 340° |
| 2026-04-24 13:03 | 39.80506 | 24.57494 | 37036 ft | 439 kts | 340° |
| 2026-04-24 13:04 | 39.86226 | 24.54700 | 37029 ft | 439 kts | 340° |
| 2026-04-24 13:04 | 39.91947 | 24.51899 | 37038 ft | 439 kts | 340° |
| 2026-04-24 13:05 | 39.97665 | 24.49092 | 37036 ft | 439 kts | 340° |
| 2026-04-24 13:05 | 40.03381 | 24.46281 | 37033 ft | 439 kts | 340° |
| 2026-04-24 13:06 | 40.09105 | 24.43460 | 37030 ft | 439 kts | 340° |
| 2026-04-24 13:06 | 40.14825 | 24.40637 | 37034 ft | 439 kts | 340° |
| 2026-04-24 13:07 | 40.20540 | 24.37812 | 37034 ft | 439 kts | 340° |
| 2026-04-24 13:07 | 40.26220 | 24.34999 | 37033 ft | 439 kts | 340° |
| 2026-04-24 13:08 | 40.31934 | 24.32166 | 37033 ft | 439 kts | 340° |
| 2026-04-24 13:08 | 40.37645 | 24.29330 | 37031 ft | 438 kts | 340° |
| 2026-04-24 13:09 | 40.46194 | 24.25070 | 37026 ft | 438 kts | 340° |
| 2026-04-24 13:09 | 40.51891 | 24.22231 | 37028 ft | 438 kts | 340° |
| 2026-04-24 13:10 | 40.57584 | 24.19386 | 37020 ft | 437 kts | 341° |
| 2026-04-24 13:10 | 40.63276 | 24.16534 | 37016 ft | 437 kts | 341° |
| 2026-04-24 13:11 | 40.68964 | 24.13679 | 37014 ft | 437 kts | 341° |
| 2026-04-24 13:11 | 40.74601 | 24.10843 | 37013 ft | 436 kts | 341° |
| 2026-04-24 13:12 | 40.80273 | 24.07982 | 37012 ft | 436 kts | 341° |
| 2026-04-24 13:12 | 40.85938 | 24.05112 | 37008 ft | 436 kts | 341° |
| 2026-04-24 13:13 | 40.91604 | 24.02247 | 37012 ft | 436 kts | 341° |
| 2026-04-24 13:13 | 40.97268 | 23.99384 | 37003 ft | 435 kts | 341° |
| 2026-04-24 13:14 | 41.02931 | 23.96511 | 37001 ft | 435 kts | 341° |
| 2026-04-24 13:14 | 41.08579 | 23.93639 | 37004 ft | 435 kts | 341° |
| 2026-04-24 13:15 | 41.14219 | 23.90763 | 36992 ft | 434 kts | 341° |
| 2026-04-24 13:15 | 41.19853 | 23.87895 | 36993 ft | 434 kts | 341° |
| 2026-04-24 13:16 | 41.25489 | 23.85013 | 36990 ft | 434 kts | 341° |
| 2026-04-24 13:16 | 41.31083 | 23.82145 | 36987 ft | 433 kts | 341° |
| 2026-04-24 13:17 | 41.36737 | 23.79357 | 36984 ft | 431 kts | 348° |
| 2026-04-24 13:17 | 41.42631 | 23.78584 | 36989 ft | 424 kts | 7° |
| 2026-04-24 13:18 | 41.48384 | 23.80121 | 36978 ft | 422 kts | 15° |
| 2026-04-24 13:18 | 41.54098 | 23.81960 | 36972 ft | 421 kts | 15° |
| 2026-04-24 13:19 | 41.59757 | 23.83782 | 36974 ft | 421 kts | 15° |
| 2026-04-24 13:19 | 41.65453 | 23.85619 | 36972 ft | 421 kts | 15° |
| 2026-04-24 13:20 | 41.71138 | 23.87456 | 36969 ft | 420 kts | 15° |
| 2026-04-24 13:20 | 41.76826 | 23.89305 | 36981 ft | 420 kts | 15° |
| 2026-04-24 13:21 | 41.82492 | 23.91139 | 36979 ft | 419 kts | 15° |
| 2026-04-24 13:21 | 41.88163 | 23.92980 | 36982 ft | 419 kts | 15° |
| 2026-04-24 13:22 | 41.93821 | 23.94830 | 36985 ft | 418 kts | 15° |
| 2026-04-24 13:22 | 41.99445 | 23.96673 | 36978 ft | 418 kts | 15° |
| 2026-04-24 13:23 | 42.05088 | 23.98528 | 36986 ft | 418 kts | 15° |
| 2026-04-24 13:23 | 42.10739 | 24.00371 | 36981 ft | 417 kts | 15° |
| 2026-04-24 13:24 | 42.15428 | 24.01902 | 36979 ft | 417 kts | 15° |
| 2026-04-24 13:24 | 42.21069 | 24.03760 | 36983 ft | 417 kts | 15° |
| 2026-04-24 13:25 | 42.26703 | 24.05621 | 36976 ft | 416 kts | 15° |
| 2026-04-24 13:25 | 42.32327 | 24.07483 | 36981 ft | 416 kts | 15° |
| 2026-04-24 13:26 | 42.37931 | 24.09336 | 36977 ft | 416 kts | 15° |
| 2026-04-24 13:26 | 42.43550 | 24.11193 | 36988 ft | 416 kts | 15° |
| 2026-04-24 13:27 | 42.49183 | 24.13062 | 36994 ft | 415 kts | 15° |
| 2026-04-24 13:27 | 42.54797 | 24.14928 | 36993 ft | 415 kts | 15° |
| 2026-04-24 13:28 | 42.60402 | 24.16794 | 36996 ft | 415 kts | 15° |
| 2026-04-24 13:28 | 42.65995 | 24.18662 | 36997 ft | 414 kts | 15° |
| 2026-04-24 13:29 | 42.71599 | 24.20549 | 36813 ft | 414 kts | 15° |
| 2026-04-24 13:29 | 42.74390 | 24.21481 | 36546 ft | 412 kts | 15° |
| 2026-04-24 13:29 | 42.77132 | 24.22398 | 36292 ft | 411 kts | 15° |
| 2026-04-24 13:30 | 42.79908 | 24.23329 | 36026 ft | 409 kts | 15° |
| 2026-04-24 13:30 | 42.82669 | 24.24256 | 35560 ft | 409 kts | 16° |
| 2026-04-24 13:30 | 42.85430 | 24.25185 | 34826 ft | 411 kts | 16° |
| 2026-04-24 13:30 | 42.88220 | 24.26123 | 34056 ft | 414 kts | 16° |
| 2026-04-24 13:31 | 42.91022 | 24.27067 | 33265 ft | 414 kts | 16° |
| 2026-04-24 13:31 | 42.93830 | 24.28015 | 32354 ft | 413 kts | 16° |
| 2026-04-24 13:31 | 42.96609 | 24.28952 | 31499 ft | 412 kts | 16° |
| 2026-04-24 13:31 | 42.99398 | 24.29896 | 30683 ft | 414 kts | 16° |
| 2026-04-24 13:32 | 43.02191 | 24.30843 | 30108 ft | 410 kts | 16° |
| 2026-04-24 13:32 | 43.04940 | 24.31773 | 29520 ft | 405 kts | 15° |
| 2026-04-24 13:32 | 43.07624 | 24.32678 | 28979 ft | 399 kts | 15° |
| 2026-04-24 13:32 | 43.10301 | 24.33578 | 28445 ft | 393 kts | 15° |
| 2026-04-24 13:33 | 43.12944 | 24.34468 | 27907 ft | 388 kts | 15° |
| 2026-04-24 13:33 | 43.15549 | 24.35352 | 27376 ft | 383 kts | 15° |
| 2026-04-24 13:33 | 43.18121 | 24.36230 | 26854 ft | 379 kts | 15° |
| 2026-04-24 13:33 | 43.20668 | 24.37103 | 26336 ft | 375 kts | 14° |
| 2026-04-24 13:34 | 43.23187 | 24.37967 | 25823 ft | 372 kts | 14° |
| 2026-04-24 13:34 | 43.25686 | 24.38820 | 25318 ft | 369 kts | 14° |
| 2026-04-24 13:34 | 43.28172 | 24.39664 | 24816 ft | 366 kts | 14° |
| 2026-04-24 13:34 | 43.30639 | 24.40501 | 24327 ft | 364 kts | 14° |
| 2026-04-24 13:35 | 43.33088 | 24.41337 | 23842 ft | 363 kts | 14° |
| 2026-04-24 13:35 | 43.35541 | 24.42173 | 23331 ft | 361 kts | 13° |
| 2026-04-24 13:35 | 43.37968 | 24.43000 | 22853 ft | 358 kts | 13° |
| 2026-04-24 13:35 | 43.40375 | 24.43825 | 22400 ft | 354 kts | 13° |
| 2026-04-24 13:36 | 43.42746 | 24.44640 | 21973 ft | 350 kts | 13° |
| 2026-04-24 13:36 | 43.45096 | 24.45447 | 21544 ft | 346 kts | 13° |
| 2026-04-24 13:36 | 43.47382 | 24.46233 | 21135 ft | 342 kts | 13° |
| 2026-04-24 13:36 | 43.49672 | 24.47024 | 20730 ft | 338 kts | 13° |
| 2026-04-24 13:37 | 43.51943 | 24.47808 | 20303 ft | 336 kts | 13° |
| 2026-04-24 13:37 | 43.54203 | 24.48587 | 19874 ft | 334 kts | 13° |
| 2026-04-24 13:37 | 43.56458 | 24.49364 | 19454 ft | 333 kts | 13° |
| 2026-04-24 13:37 | 43.58697 | 24.50134 | 19015 ft | 331 kts | 13° |
| 2026-04-24 13:38 | 43.60929 | 24.50903 | 18577 ft | 330 kts | 13° |
| 2026-04-24 13:38 | 43.63158 | 24.51672 | 18102 ft | 329 kts | 13° |
| 2026-04-24 13:38 | 43.65375 | 24.52437 | 17618 ft | 327 kts | 13° |
| 2026-04-24 13:38 | 43.67580 | 24.53197 | 17151 ft | 325 kts | 13° |
| 2026-04-24 13:39 | 43.69768 | 24.53954 | 16693 ft | 324 kts | 13° |
| 2026-04-24 13:39 | 43.71966 | 24.54532 | 16228 ft | 321 kts | 3° |
| 2026-04-24 13:39 | 43.74187 | 24.54378 | 15768 ft | 319 kts | 350° |
| 2026-04-24 13:39 | 43.76306 | 24.53476 | 15283 ft | 320 kts | 336° |
| 2026-04-24 13:40 | 43.78210 | 24.51868 | 14783 ft | 323 kts | 323° |
| 2026-04-24 13:40 | 43.79809 | 24.49675 | 14272 ft | 325 kts | 314° |
| 2026-04-24 13:40 | 43.81318 | 24.47397 | 13775 ft | 326 kts | 314° |
| 2026-04-24 13:40 | 43.82856 | 24.45086 | 13212 ft | 326 kts | 314° |
| 2026-04-24 13:41 | 43.84394 | 24.42779 | 12698 ft | 325 kts | 314° |
| 2026-04-24 13:41 | 43.85925 | 24.40485 | 12184 ft | 324 kts | 314° |
| 2026-04-24 13:41 | 43.87462 | 24.38178 | 11541 ft | 327 kts | 314° |
| 2026-04-24 13:41 | 43.89004 | 24.35859 | 11022 ft | 326 kts | 314° |
| 2026-04-24 13:42 | 43.90535 | 24.33554 | 10541 ft | 324 kts | 314° |
| 2026-04-24 13:42 | 43.92039 | 24.31287 | 10384 ft | 313 kts | 313° |
| 2026-04-24 13:42 | 43.93487 | 24.29100 | 10261 ft | 302 kts | 313° |
| 2026-04-24 13:42 | 43.94880 | 24.26992 | 10148 ft | 291 kts | 313° |
| 2026-04-24 13:43 | 43.96229 | 24.24951 | 9998 ft | 283 kts | 313° |
| 2026-04-24 13:43 | 43.97543 | 24.22965 | 9878 ft | 276 kts | 313° |
| 2026-04-24 13:43 | 43.98855 | 24.20983 | 9479 ft | 281 kts | 313° |
| 2026-04-24 13:43 | 44.00175 | 24.18992 | 9180 ft | 278 kts | 313° |
| 2026-04-24 13:44 | 44.01473 | 24.17031 | 8677 ft | 274 kts | 314° |
| 2026-04-24 13:44 | 44.02935 | 24.15387 | 8171 ft | 269 kts | 330° |
| 2026-04-24 13:44 | 44.04680 | 24.14470 | 7752 ft | 271 kts | 347° |
| 2026-04-24 13:44 | 44.06569 | 24.14363 | 7321 ft | 273 kts | 5° |
| 2026-04-24 13:45 | 44.08438 | 24.14783 | 6892 ft | 271 kts | 7° |
| 2026-04-24 13:45 | 44.10302 | 24.15208 | 6475 ft | 270 kts | 6° |
| 2026-04-24 13:45 | 44.12159 | 24.15629 | 6040 ft | 271 kts | 6° |
| 2026-04-24 13:45 | 44.13996 | 24.16043 | 5614 ft | 271 kts | 7° |
| 2026-04-24 13:46 | 44.15854 | 24.16464 | 5196 ft | 270 kts | 7° |
| 2026-04-24 13:46 | 44.17700 | 24.16883 | 4797 ft | 267 kts | 7° |
| 2026-04-24 13:46 | 44.19537 | 24.17303 | 4373 ft | 267 kts | 6° |
| 2026-04-24 13:46 | 44.21363 | 24.17719 | 3978 ft | 265 kts | 7° |
| 2026-04-24 13:47 | 44.23187 | 24.17885 | 3588 ft | 261 kts | 356° |
| 2026-04-24 13:47 | 44.24991 | 24.17846 | 3208 ft | 258 kts | 356° |
| 2026-04-24 13:47 | 44.26776 | 24.17807 | 2800 ft | 257 kts | 356° |
| 2026-04-24 13:47 | 44.28504 | 24.17772 | 2658 ft | 240 kts | 357° |
| 2026-04-24 13:48 | 44.30132 | 24.17564 | 2551 ft | 231 kts | 339° |
| 2026-04-24 13:48 | 44.31432 | 24.16371 | 2509 ft | 220 kts | 309° |
| 2026-04-24 13:48 | 44.32081 | 24.14477 | 2516 ft | 215 kts | 280° |
| 2026-04-24 13:48 | 44.32100 | 24.12454 | 2520 ft | 204 kts | 269° |
| 2026-04-24 13:49 | 44.32067 | 24.10514 | 2511 ft | 196 kts | 271° |
| 2026-04-24 13:49 | 44.32045 | 24.08651 | 2514 ft | 189 kts | 270° |
| 2026-04-24 13:49 | 44.32025 | 24.06854 | 2525 ft | 183 kts | 271° |
| 2026-04-24 13:49 | 44.32006 | 24.05084 | 2517 ft | 183 kts | 270° |
| 2026-04-24 13:50 | 44.31986 | 24.03300 | 2497 ft | 183 kts | 271° |
| 2026-04-24 13:50 | 44.31967 | 24.01509 | 2213 ft | 184 kts | 270° |
| 2026-04-24 13:50 | 44.31948 | 23.99740 | 1948 ft | 177 kts | 270° |
| 2026-04-24 13:50 | 44.31928 | 23.98104 | 1737 ft | 159 kts | 270° |
| 2026-04-24 13:51 | 44.31908 | 23.96659 | 1520 ft | 141 kts | 270° |
| 2026-04-24 13:51 | 44.31892 | 23.95398 | 1342 ft | 135 kts | 270° |
| 2026-04-24 13:51 | 44.31876 | 23.94070 | 1166 ft | 133 kts | 269° |
| 2026-04-24 13:51 | 44.31861 | 23.92792 | 995 ft | 130 kts | 270° |
| 2026-04-24 13:52 | 44.31846 | 23.91520 | 824 ft | 131 kts | 270° |
| 2026-04-24 13:52 | 44.31836 | 23.90253 | 653 ft | 130 kts | 270° |
| 2026-04-24 13:52 | 44.31824 | 23.89114 | 636 ft | 102 kts | 269° |
| 2026-04-24 13:52 | 44.31811 | 23.88039 | 727 ft | 127 kts | 270° |
| 2026-04-24 13:53 | 44.31791 | 23.86823 | 1417 ft | 129 kts | 270° |
| 2026-04-24 13:53 | 44.31747 | 23.85536 | 2131 ft | 134 kts | 270° |
| 2026-04-24 13:53 | 44.31717 | 23.84262 | 2557 ft | 127 kts | 270° |
| 2026-04-24 13:53 | 44.31679 | 23.82874 | 2501 ft | 159 kts | 269° |
| 2026-04-24 13:54 | 44.31644 | 23.81233 | 2428 ft | 178 kts | 271° |
| 2026-04-24 13:54 | 44.31631 | 23.79386 | 2404 ft | 198 kts | 271° |
| 2026-04-24 13:54 | 44.31618 | 23.77440 | 2479 ft | 202 kts | 270° |
| 2026-04-24 13:54 | 44.31600 | 23.75475 | 2509 ft | 203 kts | 270° |
| 2026-04-24 13:55 | 44.31580 | 23.73518 | 2501 ft | 200 kts | 270° |
| 2026-04-24 13:55 | 44.31580 | 23.71558 | 2519 ft | 202 kts | 275° |
| 2026-04-24 13:55 | 44.32164 | 23.69870 | 2494 ft | 202 kts | 319° |
| 2026-04-24 13:55 | 44.33499 | 23.69269 | 2517 ft | 211 kts | 2° |
| 2026-04-24 13:56 | 44.34809 | 23.70181 | 2514 ft | 220 kts | 47° |
| 2026-04-24 13:56 | 44.35510 | 23.72136 | 2515 ft | 236 kts | 70° |
| 2026-04-24 13:56 | 44.36025 | 23.74346 | 2514 ft | 240 kts | 70° |
| 2026-04-24 13:56 | 44.36541 | 23.76566 | 2506 ft | 239 kts | 70° |
| 2026-04-24 13:57 | 44.37055 | 23.78775 | 2502 ft | 238 kts | 70° |
| 2026-04-24 13:57 | 44.37569 | 23.80993 | 2501 ft | 240 kts | 70° |
| 2026-04-24 13:57 | 44.38158 | 23.83155 | 2507 ft | 238 kts | 62° |
| 2026-04-24 13:57 | 44.38931 | 23.85194 | 2504 ft | 239 kts | 59° |
| 2026-04-24 13:58 | 44.39769 | 23.87199 | 2512 ft | 238 kts | 57° |
| 2026-04-24 13:58 | 44.40614 | 23.89183 | 2508 ft | 238 kts | 57° |
| 2026-04-24 13:58 | 44.41423 | 23.91202 | 2501 ft | 237 kts | 65° |
| 2026-04-24 13:58 | 44.41848 | 23.93423 | 2508 ft | 240 kts | 83° |
| 2026-04-24 13:59 | 44.41903 | 23.95740 | 2511 ft | 241 kts | 88° |
| 2026-04-24 13:59 | 44.41934 | 23.98086 | 2509 ft | 241 kts | 87° |
| 2026-04-24 13:59 | 44.41964 | 24.00457 | 2514 ft | 249 kts | 88° |
| 2026-04-24 13:59 | 44.41992 | 24.02881 | 2518 ft | 250 kts | 88° |
| 2026-04-24 14:00 | 44.42019 | 24.05328 | 2505 ft | 252 kts | 88° |
| 2026-04-24 14:00 | 44.42046 | 24.07782 | 2518 ft | 253 kts | 87° |
| 2026-04-24 14:00 | 44.42074 | 24.10231 | 2515 ft | 251 kts | 88° |
| 2026-04-24 14:00 | 44.42101 | 24.12677 | 2506 ft | 251 kts | 88° |
| 2026-04-24 14:01 | 44.41863 | 24.15075 | 2510 ft | 250 kts | 114° |
| 2026-04-24 14:01 | 44.40760 | 24.16904 | 2530 ft | 250 kts | 150° |
| 2026-04-24 14:01 | 44.39133 | 24.17562 | 2515 ft | 243 kts | 182° |
| 2026-04-24 14:01 | 44.37450 | 24.17572 | 2512 ft | 241 kts | 182° |
| 2026-04-24 14:02 | 44.35762 | 24.17597 | 2512 ft | 244 kts | 182° |
| 2026-04-24 14:02 | 44.34078 | 24.17631 | 2509 ft | 238 kts | 182° |
| 2026-04-24 14:02 | 44.32429 | 24.17667 | 2509 ft | 237 kts | 182° |
| 2026-04-24 14:02 | 44.30787 | 24.17684 | 2520 ft | 235 kts | 187° |
| 2026-04-24 14:03 | 44.29278 | 24.16956 | 2513 ft | 228 kts | 220° |
| 2026-04-24 14:03 | 44.28339 | 24.15256 | 2516 ft | 220 kts | 253° |
| 2026-04-24 14:03 | 44.28257 | 24.13179 | 2519 ft | 217 kts | 287° |
| 2026-04-24 14:03 | 44.29026 | 24.11470 | 2516 ft | 206 kts | 321° |
| 2026-04-24 14:04 | 44.30206 | 24.10490 | 2509 ft | 195 kts | 327° |
| 2026-04-24 14:04 | 44.31271 | 24.09345 | 2508 ft | 188 kts | 308° |
| 2026-04-24 14:04 | 44.31838 | 24.07751 | 2534 ft | 183 kts | 282° |
| 2026-04-24 14:04 | 44.31922 | 24.06007 | 2520 ft | 181 kts | 274° |
| 2026-04-24 14:05 | 44.31980 | 24.04240 | 2510 ft | 183 kts | 274° |
| 2026-04-24 14:05 | 44.32010 | 24.02460 | 2370 ft | 183 kts | 272° |
| 2026-04-24 14:05 | 44.31994 | 24.00724 | 2110 ft | 171 kts | 270° |
| 2026-04-24 14:05 | 44.31970 | 23.99156 | 1886 ft | 151 kts | 271° |
| 2026-04-24 14:06 | 44.31948 | 23.97751 | 1677 ft | 141 kts | 271° |
| 2026-04-24 14:06 | 44.31928 | 23.96425 | 1472 ft | 133 kts | 271° |
| 2026-04-24 14:06 | 44.31915 | 23.95575 | 1372 ft | 133 kts | 270° |
| 2026-04-24 14:06 | 44.31912 | 23.95258 | 1329 ft | 131 kts | 271° |
| 2026-04-24 14:07 | 44.31884 | 23.93984 | 1141 ft | 130 kts | 268° |
| 2026-04-24 14:07 | 44.31859 | 23.92709 | 1011 ft | 130 kts | 271° |
| 2026-04-24 14:07 | 44.31850 | 23.91458 | 830 ft | 130 kts | 270° |
| 2026-04-24 14:07 | 44.31835 | 23.90216 | 651 ft | 125 kts | 270° |
| 2026-04-24 14:08 | 44.31822 | 23.89180 | 633 ft | 84 kts | 269° |
| 2026-04-24 14:08 | 44.31815 | 23.88597 | 629 ft | 42 kts | 269° |
| 2026-04-24 14:08 | 44.31811 | 23.88202 | 640 ft | 39 kts | 269° |
| 2026-04-24 14:08 | 44.31805 | 23.87930 | 634 ft | 17 kts | 268° |
| 2026-04-24 14:09 | 44.31742 | 23.87837 | 633 ft | 14 kts | 184° |
| 2026-04-24 14:09 | 44.31623 | 23.87842 | 632 ft | 19 kts | 179° |
| 2026-04-24 14:09 | 44.31521 | 23.87841 | 636 ft | 15 kts | 177° |
| 2026-04-24 14:09 | 44.31447 | 23.87844 | 630 ft | 3 kts | 180° |
| 2026-04-24 14:10 | 44.31432 | 23.87845 | 639 ft | 4 kts | 178° |
| 2026-04-24 14:10 | 44.31383 | 23.87840 | 630 ft | 5 kts | 210° |
| 2026-04-24 14:10 | 44.31376 | 23.87795 | 630 ft | 0 kts | 270° |
| 2026-04-24 14:10 | 44.31376 | 23.87792 | 630 ft | 1 kts | 269° |
| 2026-04-24 14:11 | 44.31376 | 23.87781 | 630 ft | 0 kts | 268° |